Time;durP1;ratioP1;P1;durP2;ratioP2;P2;SDS_P1;SDS_P2;PMS_P1;PMS_P2;Temp;Humidity;BMP_temperature;BMP_pressure;BME280_temperature;BME280_humidity;BME280_pressure;Samples;Min_cycle;Max_cycle;Signal;HPM_P1;HPM_P2
2022/09/22 00:00:16;;;;;;;19.70;8.50;;;21.50;41.70;;;;;;5043133;28;20040;-48
2022/09/22 00:02:43;;;;;;;17.15;8.57;;;21.40;41.70;;;;;;5038152;28;20029;-53
2022/09/22 00:05:09;;;;;;;14.35;7.63;;;21.40;41.70;;;;;;5051375;28;20098;-53
2022/09/22 00:07:35;;;;;;;16.48;8.02;;;21.40;41.70;;;;;;5056106;28;20048;-48
2022/09/22 00:10:00;;;;;;;14.48;8.02;;;21.40;41.60;;;;;;5037305;28;20029;-51
2022/09/22 00:12:26;;;;;;;14.15;7.03;;;21.40;41.60;;;;;;5039220;28;20411;-52
2022/09/22 00:14:52;;;;;;;18.73;7.93;;;21.40;41.70;;;;;;5055147;28;20025;-48
2022/09/22 00:17:18;;;;;;;13.20;6.45;;;21.40;41.70;;;;;;5055618;28;20128;-48
2022/09/22 00:19:44;;;;;;;13.45;6.47;;;21.40;41.70;;;;;;5038973;28;20112;-50
2022/09/22 00:22:10;;;;;;;13.82;7.00;;;21.40;41.60;;;;;;5040435;28;20025;-53
2022/09/22 00:24:35;;;;;;;11.52;5.80;;;21.40;41.60;;;;;;5054610;28;20401;-50
2022/09/22 00:27:01;;;;;;;12.60;6.28;;;21.40;41.60;;;;;;5055750;28;20017;-52
2022/09/22 00:29:29;;;;;;;10.27;5.93;;;21.40;41.60;;;;;;5054848;28;20459;-50
2022/09/22 00:31:55;;;;;;;10.63;5.72;;;21.40;41.70;;;;;;5036440;28;20438;-50
2022/09/22 00:34:24;;;;;;;9.05;5.43;;;21.40;41.70;;;;;;5037900;28;20028;-49
2022/09/22 00:36:50;;;;;;;12.57;5.97;;;21.40;41.70;;;;;;5047922;28;20130;-50
2022/09/22 00:39:17;;;;;;;11.30;5.72;;;21.40;41.70;;;;;;5036390;28;20069;-51
2022/09/22 00:41:46;;;;;;;11.27;5.88;;;21.40;41.70;;;;;;5035938;28;20088;-53
2022/09/22 00:44:35;;;;;;;11.55;5.88;;;21.40;41.70;;;;;;5052030;28;20037;-52
2022/09/22 00:47:28;;;;;;;10.20;5.70;;;21.40;41.70;;;;;;5055419;28;20029;-48
2022/09/22 00:50:02;;;;;;;11.20;5.70;;;21.40;41.70;;;;;;5039465;28;20025;-49
2022/09/22 00:52:35;;;;;;;10.70;5.00;;;21.30;41.70;;;;;;5043653;28;20032;-49
2022/09/22 00:55:07;;;;;;;9.43;4.85;;;21.30;41.70;;;;;;5053348;28;20037;-49
2022/09/22 00:57:35;;;;;;;10.55;5.00;;;21.30;41.70;;;;;;5046330;28;20124;-51
2022/09/22 01:00:05;;;;;;;9.57;4.75;;;21.30;41.70;;;;;;5054918;28;20331;-51
2022/09/22 01:02:30;;;;;;;10.80;4.70;;;21.30;41.70;;;;;;5048362;28;20469;-49
2022/09/22 01:04:56;;;;;;;9.82;5.03;;;21.30;41.70;;;;;;5039968;28;20027;-51
2022/09/22 01:07:27;;;;;;;8.05;4.35;;;21.30;41.70;;;;;;5040329;28;20033;-51
2022/09/22 01:09:54;;;;;;;8.70;4.72;;;21.30;41.70;;;;;;5033123;28;20119;-52
2022/09/22 01:12:22;;;;;;;10.45;4.32;;;21.30;41.80;;;;;;5034848;28;20040;-52
2022/09/22 01:15:15;;;;;;;8.20;4.22;;;21.30;41.80;;;;;;5054531;28;20060;-52
2022/09/22 01:18:06;;;;;;;7.35;4.22;;;21.30;41.80;;;;;;5053065;28;20318;-51
2022/09/22 01:20:39;;;;;;;9.75;5.05;;;21.30;41.80;;;;;;5055181;28;20040;-47
2022/09/22 01:23:05;;;;;;;8.50;4.05;;;21.30;41.80;;;;;;5029764;28;20117;-49
2022/09/22 01:26:12;;;;;;;7.85;3.85;;;21.30;41.80;;;;;;5036674;28;20412;-51
2022/09/22 01:29:01;;;;;;;9.18;4.68;;;21.30;41.70;;;;;;5047510;28;20144;-48
2022/09/22 01:31:34;;;;;;;7.80;3.85;;;21.30;41.70;;;;;;5035645;28;20044;-50
2022/09/22 01:34:10;;;;;;;7.55;3.50;;;21.30;41.70;;;;;;5042923;28;20037;-52
2022/09/22 01:36:53;;;;;;;7.88;3.95;;;21.20;41.70;;;;;;5039723;28;20028;-47
2022/09/22 01:39:30;;;;;;;7.35;3.25;;;21.30;41.70;;;;;;5055479;28;20033;-48
2022/09/22 01:42:08;;;;;;;6.22;3.17;;;21.20;41.70;;;;;;5040284;28;20029;-52
2022/09/22 01:44:48;;;;;;;6.43;3.33;;;21.20;41.70;;;;;;5049948;28;20373;-49
2022/09/22 01:47:39;;;;;;;6.90;3.60;;;21.20;41.70;;;;;;5058164;28;20372;-52
2022/09/22 01:50:29;;;;;;;5.50;3.10;;;21.20;41.70;;;;;;5053359;28;20028;-51
2022/09/22 01:53:00;;;;;;;6.90;3.42;;;21.20;41.60;;;;;;5048744;28;20031;-53
2022/09/22 01:55:32;;;;;;;5.95;2.90;;;21.20;41.60;;;;;;5057082;28;20098;-51
2022/09/22 01:58:02;;;;;;;6.13;2.88;;;21.20;41.70;;;;;;5055687;28;20063;-47
2022/09/22 02:00:28;;;;;;;6.20;3.75;;;21.20;41.70;;;;;;5054036;28;20033;-49
2022/09/22 02:03:25;;;;;;;7.13;3.10;;;21.20;41.60;;;;;;5046421;28;20095;-48
2022/09/22 02:06:00;;;;;;;5.22;2.83;;;21.20;41.60;;;;;;5037910;28;20044;-47
2022/09/22 02:08:32;;;;;;;4.93;2.92;;;21.20;41.70;;;;;;5045491;28;20048;-50
2022/09/22 02:11:03;;;;;;;4.50;2.95;;;21.20;41.70;;;;;;5038457;28;20026;-52
2022/09/22 02:13:28;;;;;;;4.68;2.55;;;21.20;41.60;;;;;;5042898;28;20033;-46
2022/09/22 02:16:00;;;;;;;5.32;2.53;;;21.20;41.60;;;;;;5058009;28;20032;-47
2022/09/22 02:18:32;;;;;;;5.70;2.50;;;21.20;41.50;;;;;;5052535;28;20041;-50
2022/09/22 02:21:00;;;;;;;5.05;2.90;;;21.20;41.50;;;;;;5038252;28;20124;-51
2022/09/22 02:23:27;;;;;;;4.18;2.60;;;21.20;41.50;;;;;;5051414;28;20466;-49
2022/09/22 02:25:54;;;;;;;5.80;2.50;;;21.20;41.40;;;;;;5056621;28;20037;-52
2022/09/22 02:28:22;;;;;;;4.80;2.75;;;21.20;41.50;;;;;;5057804;28;20028;-51
2022/09/22 02:30:51;;;;;;;5.22;2.90;;;21.20;41.50;;;;;;5058158;28;20045;-48
2022/09/22 02:33:20;;;;;;;5.03;2.10;;;21.20;41.50;;;;;;5051161;28;20508;-51
2022/09/22 02:35:50;;;;;;;4.57;2.60;;;21.20;41.40;;;;;;5037534;28;20026;-50
2022/09/22 02:38:20;;;;;;;4.78;2.60;;;21.20;41.40;;;;;;5050771;28;20467;-48
2022/09/22 02:41:10;;;;;;;4.47;2.50;;;21.20;41.50;;;;;;5057952;28;20048;-53
2022/09/22 02:44:02;;;;;;;4.50;2.17;;;21.20;41.50;;;;;;5055318;28;20053;-48
2022/09/22 02:46:41;;;;;;;6.20;2.38;;;21.20;41.40;;;;;;5055866;28;20069;-47
2022/09/22 02:49:15;;;;;;;3.55;2.08;;;21.20;41.40;;;;;;5033228;28;20433;-51
2022/09/22 02:51:42;;;;;;;3.47;1.92;;;21.20;41.40;;;;;;5055996;28;20061;-52
2022/09/22 02:54:08;;;;;;;5.45;2.28;;;21.20;41.40;;;;;;5055898;28;20086;-47
2022/09/22 02:56:34;;;;;;;4.43;2.17;;;21.20;41.40;;;;;;5057262;28;20395;-46
2022/09/22 02:59:00;;;;;;;4.00;1.88;;;21.20;41.40;;;;;;5053729;28;20045;-48
2022/09/22 03:01:26;;;;;;;3.67;1.67;;;21.20;41.40;;;;;;5056568;28;20078;-51
2022/09/22 03:03:52;;;;;;;4.47;2.30;;;21.20;41.30;;;;;;5035719;28;20445;-48
2022/09/22 03:06:18;;;;;;;2.97;1.90;;;21.20;41.40;;;;;;5057564;28;20017;-52
2022/09/22 03:08:43;;;;;;;4.05;2.20;;;21.20;41.30;;;;;;5054408;28;20041;-50
2022/09/22 03:11:09;;;;;;;3.40;1.95;;;21.20;41.30;;;;;;5055493;28;20058;-51
2022/09/22 03:13:35;;;;;;;6.15;2.22;;;21.20;41.20;;;;;;5047844;28;20041;-47
2022/09/22 03:16:01;;;;;;;2.88;1.85;;;21.20;41.30;;;;;;5057256;28;20444;-49
2022/09/22 03:18:27;;;;;;;3.17;1.55;;;21.20;41.20;;;;;;5052026;28;20041;-47
2022/09/22 03:20:52;;;;;;;4.35;1.70;;;21.20;41.20;;;;;;5037110;28;20057;-47
2022/09/22 03:23:18;;;;;;;4.60;2.08;;;21.20;41.20;;;;;;5037446;28;20436;-48
2022/09/22 03:25:44;;;;;;;5.80;1.88;;;21.20;41.20;;;;;;5056926;28;20438;-50
2022/09/22 03:28:10;;;;;;;3.25;1.75;;;21.20;41.10;;;;;;5057578;28;20033;-47
2022/09/22 03:30:36;;;;;;;2.95;1.80;;;21.20;41.10;;;;;;5049501;28;20068;-49
2022/09/22 03:33:02;;;;;;;3.92;1.60;;;21.20;41.10;;;;;;5038840;28;20056;-49
2022/09/22 03:35:28;;;;;;;3.83;1.77;;;21.20;41.10;;;;;;5056411;28;20406;-47
2022/09/22 03:37:53;;;;;;;3.30;1.80;;;21.20;41.10;;;;;;5049608;28;20124;-49
2022/09/22 03:40:21;;;;;;;3.10;1.63;;;21.20;41.10;;;;;;5056734;28;20043;-51
2022/09/22 03:42:47;;;;;;;3.90;1.92;;;21.20;41.10;;;;;;5055710;28;20037;-49
2022/09/22 03:45:14;;;;;;;3.38;1.60;;;21.20;41.10;;;;;;5055412;28;20052;-48
2022/09/22 03:47:40;;;;;;;2.88;1.52;;;21.20;41.10;;;;;;5056210;28;20037;-49
2022/09/22 03:50:07;;;;;;;3.20;1.90;;;21.20;41.10;;;;;;5056418;28;20025;-48
2022/09/22 03:52:33;;;;;;;2.33;1.40;;;21.20;41.00;;;;;;5053354;28;20033;-50
2022/09/22 03:55:00;;;;;;;3.17;1.60;;;21.20;41.00;;;;;;5053213;28;20040;-47
2022/09/22 03:57:26;;;;;;;3.90;1.67;;;21.20;41.00;;;;;;5055119;28;20436;-49
2022/09/22 03:59:52;;;;;;;2.72;1.50;;;21.20;41.00;;;;;;5055882;28;20032;-47
2022/09/22 04:02:18;;;;;;;3.33;1.75;;;21.20;41.00;;;;;;5044816;28;20064;-48
2022/09/22 04:04:43;;;;;;;3.05;1.65;;;21.20;41.00;;;;;;5016286;28;20034;-48
2022/09/22 04:07:09;;;;;;;2.10;1.40;;;21.20;41.00;;;;;;5019749;28;20030;-48
2022/09/22 04:09:35;;;;;;;2.17;1.27;;;21.20;41.00;;;;;;5043486;28;20049;-48
2022/09/22 04:12:02;;;;;;;2.55;1.45;;;21.20;41.00;;;;;;5048958;28;20116;-50
2022/09/22 04:14:28;;;;;;;2.17;1.25;;;21.20;41.00;;;;;;5036011;28;20112;-51
2022/09/22 04:16:54;;;;;;;2.53;1.38;;;21.20;41.00;;;;;;5040210;28;20040;-48
2022/09/22 04:19:21;;;;;;;2.00;1.10;;;21.20;41.00;;;;;;5043671;28;20041;-49
2022/09/22 04:21:47;;;;;;;2.50;1.40;;;21.20;41.00;;;;;;5051525;28;20037;-48
2022/09/22 04:24:13;;;;;;;3.80;1.50;;;21.20;41.00;;;;;;5036562;28;20025;-46
2022/09/22 04:26:39;;;;;;;2.70;1.20;;;21.20;41.00;;;;;;5051164;28;20043;-47
2022/09/22 04:29:05;;;;;;;2.63;1.30;;;21.20;41.00;;;;;;5055615;28;20036;-53
2022/09/22 04:31:31;;;;;;;2.85;1.48;;;21.20;41.00;;;;;;5055482;28;20036;-50
2022/09/22 04:33:56;;;;;;;2.60;1.30;;;21.20;41.00;;;;;;5053745;28;20039;-51
2022/09/22 04:36:22;;;;;;;3.70;1.52;;;21.20;41.00;;;;;;5052079;28;20043;-55
2022/09/22 04:38:48;;;;;;;2.90;1.30;;;21.20;41.00;;;;;;5055642;28;20190;-51
2022/09/22 04:41:14;;;;;;;3.25;1.33;;;21.20;40.90;;;;;;5048829;28;20397;-53
2022/09/22 04:43:40;;;;;;;3.42;1.50;;;21.20;40.90;;;;;;5035533;28;20033;-55
2022/09/22 04:46:06;;;;;;;2.28;1.40;;;21.20;41.50;;;;;;5046293;28;20032;-52
2022/09/22 04:48:32;;;;;;;1.85;1.00;;;21.20;40.90;;;;;;5052474;28;20032;-48
2022/09/22 04:50:58;;;;;;;2.63;1.30;;;21.20;40.90;;;;;;5054338;28;20185;-53
2022/09/22 04:53:24;;;;;;;3.03;1.35;;;21.20;41.00;;;;;;5055185;28;20029;-53
2022/09/22 04:55:50;;;;;;;1.80;1.10;;;21.20;41.00;;;;;;5050878;28;20360;-52
2022/09/22 04:58:16;;;;;;;3.70;1.40;;;21.20;41.00;;;;;;5053574;28;20041;-51
2022/09/22 05:00:42;;;;;;;2.38;1.27;;;21.20;41.00;;;;;;5055310;28;20043;-50
2022/09/22 05:03:11;;;;;;;3.00;1.17;;;21.20;41.00;;;;;;5040152;28;20029;-53
2022/09/22 05:05:37;;;;;;;2.63;1.35;;;21.20;41.00;;;;;;5039200;28;20096;-50
2022/09/22 05:08:04;;;;;;;2.33;1.10;;;21.20;41.00;;;;;;5047921;28;20057;-53
2022/09/22 05:10:33;;;;;;;3.40;1.70;;;21.20;41.00;;;;;;5044552;28;20040;-52
2022/09/22 05:12:59;;;;;;;2.50;1.08;;;21.20;41.00;;;;;;5035358;28;20076;-52
2022/09/22 05:15:25;;;;;;;2.63;1.17;;;21.20;41.00;;;;;;5045724;28;20064;-47
2022/09/22 05:17:53;;;;;;;2.10;1.15;;;21.20;41.00;;;;;;5053547;28;20045;-52
2022/09/22 05:20:20;;;;;;;2.67;1.20;;;21.20;41.00;;;;;;5035217;28;20068;-53
2022/09/22 05:22:46;;;;;;;2.55;1.27;;;21.20;41.00;;;;;;5054395;28;20033;-51
2022/09/22 05:25:17;;;;;;;3.75;1.17;;;21.20;41.00;;;;;;5046385;28;20392;-52
2022/09/22 05:27:52;;;;;;;6.25;1.65;;;21.20;41.00;;;;;;5036296;28;20115;-48
2022/09/22 05:30:19;;;;;;;4.22;1.23;;;21.20;41.00;;;;;;5053126;28;20037;-52
2022/09/22 05:32:48;;;;;;;3.78;1.83;;;21.20;41.00;;;;;;5046506;28;20029;-49
2022/09/22 05:35:17;;;;;;;3.13;1.35;;;21.20;41.00;;;;;;5036716;28;20360;-50
2022/09/22 05:37:45;;;;;;;2.72;1.20;;;21.20;41.00;;;;;;5051040;28;20032;-51
2022/09/22 05:40:12;;;;;;;4.53;1.40;;;21.20;41.00;;;;;;5052971;28;20102;-53
2022/09/22 05:42:41;;;;;;;4.25;1.50;;;21.20;41.00;;;;;;5038510;28;20444;-51
2022/09/22 05:45:07;;;;;;;3.72;1.60;;;21.20;41.00;;;;;;5034376;28;20503;-52
2022/09/22 05:47:34;;;;;;;3.20;1.33;;;21.20;41.00;;;;;;5048500;28;20112;-49
2022/09/22 05:49:59;;;;;;;3.35;1.50;;;21.20;40.90;;;;;;5051880;28;20036;-50
2022/09/22 05:52:25;;;;;;;4.60;1.88;;;21.20;40.90;;;;;;5042883;28;20033;-52
2022/09/22 05:54:51;;;;;;;3.30;1.40;;;21.20;40.90;;;;;;5034914;28;20099;-49
2022/09/22 05:57:20;;;;;;;3.72;1.23;;;21.20;40.90;;;;;;5046406;28;20041;-49
2022/09/22 05:59:46;;;;;;;3.90;1.60;;;21.20;40.90;;;;;;5049412;28;20025;-52
2022/09/22 06:02:12;;;;;;;3.85;1.50;;;21.20;40.90;;;;;;5027687;28;20036;-52
2022/09/22 06:04:38;;;;;;;2.80;1.15;;;21.10;40.80;;;;;;5054630;28;20052;-48
2022/09/22 06:07:05;;;;;;;4.25;1.20;;;21.20;40.90;;;;;;5054001;28;20037;-47
2022/09/22 06:09:31;;;;;;;4.63;1.77;;;21.20;40.80;;;;;;5042755;28;20045;-51
2022/09/22 06:11:57;;;;;;;2.55;1.38;;;21.20;40.80;;;;;;5043717;28;20044;-51
2022/09/22 06:14:23;;;;;;;3.47;1.48;;;21.20;40.90;;;;;;5048753;28;20033;-49
2022/09/22 06:16:48;;;;;;;5.07;1.58;;;21.20;40.90;;;;;;5053304;28;20381;-50
2022/09/22 06:19:14;;;;;;;3.95;1.40;;;21.20;40.90;;;;;;5044919;28;20037;-52
2022/09/22 06:21:40;;;;;;;3.30;1.20;;;21.20;40.90;;;;;;5044110;28;20105;-50
2022/09/22 06:24:06;;;;;;;3.42;1.20;;;21.20;41.00;;;;;;5033695;28;20029;-48
2022/09/22 06:26:33;;;;;;;2.30;1.20;;;21.20;41.00;;;;;;5034220;28;20037;-48
2022/09/22 06:28:59;;;;;;;3.47;1.50;;;21.20;41.00;;;;;;5046334;28;20052;-50
2022/09/22 06:31:26;;;;;;;2.85;1.27;;;21.10;41.00;;;;;;5038756;28;20164;-50
2022/09/22 06:33:53;;;;;;;2.83;1.23;;;21.20;41.00;;;;;;5048439;28;20029;-51
2022/09/22 06:36:37;;;;;;;3.92;1.50;;;21.10;41.00;;;;;;5046982;28;20498;-49
2022/09/22 06:39:04;;;;;;;2.97;1.40;;;21.20;41.00;;;;;;5045802;28;20382;-50
2022/09/22 06:41:32;;;;;;;3.13;1.52;;;21.20;41.00;;;;;;5051006;28;20309;-48
2022/09/22 06:44:01;;;;;;;4.15;1.20;;;21.20;41.70;;;;;;5041732;28;20353;-53
2022/09/22 06:46:29;;;;;;;3.38;1.65;;;21.20;41.20;;;;;;5052190;28;20108;-52
2022/09/22 06:48:56;;;;;;;2.83;1.40;;;21.20;41.20;;;;;;5048905;28;20535;-52
2022/09/22 06:51:27;;;;;;;3.72;1.45;;;21.20;41.30;;;;;;5037779;28;20407;-53
2022/09/22 06:53:54;;;;;;;2.63;1.23;;;21.20;42.00;;;;;;5037387;28;20045;-51
2022/09/22 06:56:24;;;;;;;3.90;1.45;;;21.20;41.40;;;;;;5018635;28;20021;-50
2022/09/22 06:58:51;;;;;;;3.55;1.50;;;21.20;41.50;;;;;;5035887;28;20045;-47
2022/09/22 07:01:18;;;;;;;3.38;1.52;;;21.20;41.50;;;;;;5043868;28;20044;-49
2022/09/22 07:03:45;;;;;;;5.05;1.75;;;21.20;41.50;;;;;;5049592;28;20032;-49
2022/09/22 07:06:16;;;;;;;3.20;1.45;;;21.20;41.60;;;;;;5036986;28;20029;-49
2022/09/22 07:08:42;;;;;;;3.70;1.20;;;21.20;41.60;;;;;;5036523;28;20145;-46
2022/09/22 07:11:09;;;;;;;4.90;1.75;;;21.20;41.60;;;;;;5037152;28;20534;-52
2022/09/22 07:13:38;;;;;;;4.15;1.50;;;21.20;41.60;;;;;;5038408;28;20037;-50
2022/09/22 07:16:06;;;;;;;3.38;1.38;;;21.20;41.60;;;;;;5052701;28;20111;-52
2022/09/22 07:18:32;;;;;;;3.15;1.38;;;21.20;41.60;;;;;;5048620;28;20128;-50
2022/09/22 07:21:07;;;;;;;2.33;1.15;;;21.20;41.60;;;;;;5036727;28;20456;-48
2022/09/22 07:23:34;;;;;;;3.05;1.27;;;21.20;41.60;;;;;;5037248;28;20037;-52
2022/09/22 07:26:03;;;;;;;3.80;1.63;;;21.20;41.60;;;;;;5047983;28;20068;-51
2022/09/22 07:28:30;;;;;;;2.13;1.30;;;21.20;41.70;;;;;;5057073;28;20037;-53
2022/09/22 07:31:04;;;;;;;4.07;1.40;;;21.20;41.70;;;;;;5055960;28;20467;-52
2022/09/22 07:33:32;;;;;;;2.70;1.30;;;21.20;41.70;;;;;;5046581;28;20089;-51
2022/09/22 07:36:19;;;;;;;3.08;1.52;;;21.20;41.70;;;;;;5027103;28;20032;-49
2022/09/22 07:38:50;;;;;;;2.50;1.40;;;21.20;41.80;;;;;;5035111;28;20045;-49
2022/09/22 07:41:18;;;;;;;2.60;1.48;;;21.20;41.80;;;;;;5032457;28;20029;-53
2022/09/22 07:43:44;;;;;;;4.50;1.40;;;21.20;41.80;;;;;;5035537;28;20030;-49
2022/09/22 07:46:12;;;;;;;2.78;1.60;;;21.20;41.90;;;;;;5033750;28;20061;-49
2022/09/22 07:48:42;;;;;;;3.85;1.70;;;21.20;41.90;;;;;;5034241;28;20512;-51
2022/09/22 07:51:20;;;;;;;3.92;1.40;;;21.10;41.90;;;;;;5043858;28;20017;-50
2022/09/22 07:53:48;;;;;;;2.90;1.58;;;21.20;42.00;;;;;;5049736;28;20095;-50
2022/09/22 07:56:17;;;;;;;5.65;2.00;;;21.10;42.00;;;;;;5029224;28;20334;-50
2022/09/22 07:58:52;;;;;;;2.40;1.38;;;21.10;42.00;;;;;;5016435;28;20056;-53
2022/09/22 08:01:20;;;;;;;3.10;1.20;;;21.10;42.00;;;;;;5030349;28;20034;-53
2022/09/22 08:03:46;;;;;;;2.75;1.60;;;21.10;42.10;;;;;;5044345;28;20021;-51
2022/09/22 08:06:18;;;;;;;5.63;1.77;;;21.10;42.30;;;;;;5044853;28;20441;-53
2022/09/22 08:08:52;;;;;;;3.45;1.52;;;21.10;42.50;;;;;;5029016;28;20123;-54
2022/09/22 08:11:27;;;;;;;3.50;1.60;;;21.10;42.70;;;;;;5055864;28;20029;-51
2022/09/22 08:13:56;;;;;;;3.63;1.60;;;21.10;42.80;;;;;;5055786;28;20456;-50
2022/09/22 08:16:24;;;;;;;8.35;1.95;;;21.10;42.80;;;;;;5051168;28;20471;-51
2022/09/22 08:18:57;;;;;;;5.20;1.98;;;21.10;42.80;;;;;;5043217;28;20041;-51
2022/09/22 08:21:34;;;;;;;3.25;1.75;;;21.10;42.80;;;;;;5047251;28;20039;-51
2022/09/22 08:24:08;;;;;;;2.90;1.60;;;21.10;42.80;;;;;;5053744;28;20029;-53
2022/09/22 08:26:35;;;;;;;3.70;1.85;;;21.10;42.90;;;;;;5036022;28;20391;-49
2022/09/22 08:29:03;;;;;;;3.58;1.70;;;21.10;42.90;;;;;;5045681;28;20092;-51
2022/09/22 08:31:29;;;;;;;4.53;1.75;;;21.10;42.90;;;;;;5054131;28;20086;-52
2022/09/22 08:33:55;;;;;;;3.33;1.55;;;21.10;42.90;;;;;;5048425;28;20024;-50
2022/09/22 08:36:24;;;;;;;4.60;1.77;;;21.10;42.90;;;;;;5055664;28;20072;-51
2022/09/22 08:38:49;;;;;;;4.57;1.80;;;21.10;42.90;;;;;;5049116;28;20045;-52
2022/09/22 08:41:38;;;;;;;4.65;1.60;;;21.10;42.90;;;;;;5035670;28;20090;-48
2022/09/22 08:44:09;;;;;;;4.13;1.85;;;21.10;43.00;;;;;;5036456;28;20033;-54
2022/09/22 08:46:39;;;;;;;2.30;1.60;;;21.10;43.00;;;;;;5035631;28;20076;-53
2022/09/22 08:52:27;;;;;;;4.30;2.45;;;21.10;43.10;;;;;;5034789;28;20037;-53
2022/09/22 08:54:58;;;;;;;3.35;1.80;;;21.10;43.10;;;;;;5043769;28;20025;-50
2022/09/22 08:57:49;;;;;;;3.17;1.60;;;21.10;43.10;;;;;;5055555;28;20048;-52
2022/09/22 09:00:18;;;;;;;5.20;1.85;;;21.10;43.10;;;;;;5055063;28;20041;-49
2022/09/22 09:03:15;;;;;;;4.28;2.03;;;21.10;43.20;;;;;;5050024;28;20025;-51
2022/09/22 09:06:03;;;;;;;3.40;1.80;;;21.10;43.20;;;;;;5045420;28;20028;-48
2022/09/22 09:08:47;;;;;;;2.63;1.45;;;21.10;43.20;;;;;;5048436;28;20045;-51
2022/09/22 09:11:33;;;;;;;3.83;1.90;;;21.10;43.20;;;;;;5043387;28;20480;-51
2022/09/22 09:14:22;;;;;;;3.80;1.60;;;21.10;43.40;;;;;;5038809;28;20619;-49
2022/09/22 09:17:02;;;;;;;2.88;1.30;;;21.10;43.60;;;;;;5046691;28;20021;-50
2022/09/22 09:19:47;;;;;;;2.63;1.45;;;21.10;43.80;;;;;;5037797;28;20060;-52
2022/09/22 09:22:26;;;;;;;4.68;1.63;;;21.10;43.90;;;;;;5040872;28;20133;-49
2022/09/22 09:25:04;;;;;;;5.05;1.77;;;21.20;44.10;;;;;;5047939;28;20069;-52
2022/09/22 09:27:37;;;;;;;3.58;1.40;;;21.10;44.10;;;;;;5041201;28;20076;-51
2022/09/22 09:30:11;;;;;;;3.57;1.33;;;21.20;44.30;;;;;;5042974;28;20025;-50
2022/09/22 09:32:51;;;;;;;2.65;1.42;;;21.10;44.30;;;;;;5049392;28;20291;-49
2022/09/22 09:35:23;;;;;;;7.88;1.75;;;21.20;44.40;;;;;;5034927;28;20179;-51
2022/09/22 09:37:52;;;;;;;4.50;1.73;;;21.20;44.50;;;;;;5034984;28;20045;-49
2022/09/22 09:40:19;;;;;;;3.45;1.40;;;21.20;44.50;;;;;;5041232;28;20028;-53
2022/09/22 09:42:49;;;;;;;3.28;1.17;;;21.30;44.60;;;;;;5040545;28;20116;-49
2022/09/22 09:45:22;;;;;;;3.35;1.25;;;21.30;44.60;;;;;;5038514;28;20456;-53
2022/09/22 09:48:04;;;;;;;3.08;1.52;;;21.30;44.60;;;;;;5047797;28;20044;-49
2022/09/22 09:50:30;;;;;;;2.05;1.38;;;21.30;44.60;;;;;;5036068;28;20183;-54
2022/09/22 09:53:03;;;;;;;7.15;1.60;;;21.40;44.60;;;;;;5051158;28;20037;-53
2022/09/22 09:55:34;;;;;;;3.83;1.60;;;21.40;44.60;;;;;;5028558;28;20038;-56
2022/09/22 10:00:29;;;;;;;3.33;1.38;;;21.40;44.50;;;;;;5028783;28;20040;-51
2022/09/22 10:01:00;;;;;;;3.35;1.25;;;21.40;44.50;;;;;;5036937;28;20040;-50
2022/09/22 10:03:32;;;;;;;2.90;1.38;;;21.40;44.50;;;;;;5041729;28;20108;-49
2022/09/22 10:06:09;;;;;;;3.78;1.25;;;21.40;44.40;;;;;;5038609;28;20144;-50
2022/09/22 10:08:48;;;;;;;5.10;1.17;;;21.50;44.40;;;;;;5033135;28;20049;-49
2022/09/22 10:11:14;;;;;;;4.07;1.10;;;21.50;44.30;;;;;;5042230;28;20036;-52
2022/09/22 10:13:42;;;;;;;4.90;1.23;;;21.50;44.30;;;;;;5046103;28;20033;-51
2022/09/22 10:16:29;;;;;;;4.72;1.42;;;21.60;44.40;;;;;;5039545;28;20394;-52
2022/09/22 10:18:58;;;;;;;3.85;1.08;;;21.60;44.20;;;;;;5033926;28;20124;-52
2022/09/22 10:21:25;;;;;;;6.38;1.25;;;21.60;44.10;;;;;;5041757;28;20540;-52
2022/09/22 10:23:56;;;;;;;4.22;1.10;;;21.60;43.90;;;;;;5047107;28;20100;-48
2022/09/22 10:26:29;;;;;;;3.42;1.00;;;21.60;43.70;;;;;;5045604;28;20036;-53
2022/09/22 10:29:12;;;;;;;4.05;1.00;;;21.60;43.60;;;;;;5049616;28;20475;-49
2022/09/22 10:31:47;;;;;;;2.28;0.93;;;21.60;43.40;;;;;;5051291;28;20030;-51
2022/09/22 10:34:36;;;;;;;4.25;1.15;;;21.60;43.30;;;;;;5037938;28;20045;-52
2022/09/22 10:37:09;;;;;;;3.92;1.20;;;21.60;43.10;;;;;;5037790;28;20049;-56
2022/09/22 10:39:47;;;;;;;3.47;1.00;;;21.60;43.10;;;;;;5035475;28;20110;-57
2022/09/22 10:42:26;;;;;;;7.50;1.58;;;21.60;43.50;;;;;;5044716;28;20547;-54
2022/09/22 10:44:58;;;;;;;3.30;1.27;;;21.70;44.00;;;;;;5039236;28;20417;-54
2022/09/22 10:47:31;;;;;;;2.17;0.80;;;21.70;44.20;;;;;;5038140;28;20030;-53
2022/09/22 10:50:36;;;;;;;2.85;1.17;;;21.70;44.10;;;;;;5035834;28;20025;-55
2022/09/22 10:53:36;;;;;;;2.90;1.15;;;21.90;44.20;;;;;;4992162;28;20030;-61
2022/09/22 10:56:32;;;;;;;2.55;0.95;;;22.00;43.90;;;;;;4999122;28;20465;-56
2022/09/22 10:59:24;;;;;;;2.67;1.23;;;22.20;43.70;;;;;;5024755;28;20077;-55
2022/09/22 11:02:11;;;;;;;2.67;1.20;;;22.30;43.50;;;;;;5030145;28;20025;-56
2022/09/22 11:05:11;;;;;;;2.63;0.90;;;22.50;43.30;;;;;;5040273;28;20041;-55
2022/09/22 11:13:55;;;;;;;3.60;0.90;;;22.90;42.80;;;;;;5044737;28;20021;-55
2022/09/22 11:16:55;;;;;;;2.80;1.02;;;23.00;42.60;;;;;;5043889;28;20037;-58
2022/09/22 11:19:49;;;;;;;6.45;1.08;;;23.10;42.40;;;;;;5026195;28;20053;-58
2022/09/22 11:22:50;;;;;;;5.25;1.15;;;23.20;42.20;;;;;;5045912;28;20087;-55
2022/09/22 11:25:30;;;;;;;4.90;1.48;;;23.30;41.90;;;;;;5041244;28;20368;-54
2022/09/22 11:28:02;;;;;;;3.80;1.10;;;23.40;41.70;;;;;;5033261;28;20034;-51
2022/09/22 11:30:43;;;;;;;2.83;1.00;;;23.50;41.30;;;;;;5031790;28;20026;-54
2022/09/22 11:33:33;;;;;;;3.38;0.90;;;23.50;40.90;;;;;;5037327;28;20030;-49
2022/09/22 11:36:25;;;;;;;3.00;1.38;;;23.60;40.60;;;;;;5035498;28;20465;-52
2022/09/22 11:39:09;;;;;;;1.35;0.70;;;23.70;40.30;;;;;;5028445;28;20187;-54
2022/09/22 11:41:38;;;;;;;3.97;1.00;;;23.70;40.00;;;;;;5041492;28;20038;-53
2022/09/22 11:44:06;;;;;;;1.83;0.73;;;23.70;39.70;;;;;;5038097;28;20472;-54
2022/09/22 11:47:11;;;;;;;2.80;0.82;;;23.80;39.50;;;;;;5036734;28;20104;-51
2022/09/22 11:49:51;;;;;;;3.47;1.03;;;23.80;39.30;;;;;;5038352;28;20456;-51
2022/09/22 11:52:42;;;;;;;2.58;0.90;;;23.80;39.00;;;;;;5035888;28;20356;-52
2022/09/22 11:55:42;;;;;;;2.10;0.85;;;23.80;38.90;;;;;;5035178;28;20049;-55
2022/09/22 11:58:17;;;;;;;2.45;0.70;;;23.80;38.60;;;;;;5026722;28;20057;-54
2022/09/22 12:01:05;;;;;;;1.05;0.57;;;23.80;38.50;;;;;;5032939;28;20021;-52
2022/09/22 12:04:00;;;;;;;2.45;0.70;;;23.80;38.40;;;;;;5033968;28;20048;-53
2022/09/22 12:06:30;;;;;;;1.08;0.50;;;23.80;38.30;;;;;;5033626;28;20099;-53
2022/09/22 12:09:03;;;;;;;1.33;0.70;;;23.80;38.30;;;;;;5031841;28;20045;-51
2022/09/22 12:11:34;;;;;;;1.25;0.60;;;23.80;38.10;;;;;;5034498;28;20021;-51
2022/09/22 12:14:02;;;;;;;1.40;0.70;;;23.80;38.10;;;;;;5039011;28;20356;-53
2022/09/22 12:16:40;;;;;;;2.17;0.70;;;23.80;37.90;;;;;;5039500;28;20112;-56
2022/09/22 12:19:16;;;;;;;1.70;0.60;;;23.80;37.70;;;;;;5041582;28;20045;-57
2022/09/22 12:22:27;;;;;;;1.20;0.60;;;23.80;37.60;;;;;;5037582;28;20373;-54
2022/09/22 12:24:53;;;;;;;1.65;0.40;;;23.80;37.50;;;;;;5042665;28;20037;-52
2022/09/22 12:27:21;;;;;;;1.20;0.70;;;23.80;37.60;;;;;;5045104;28;20104;-54
2022/09/22 12:29:54;;;;;;;0.77;0.47;;;23.80;37.50;;;;;;5046270;28;20037;-52
2022/09/22 12:32:24;;;;;;;1.13;0.60;;;23.80;37.50;;;;;;5044831;28;20060;-51
2022/09/22 12:34:55;;;;;;;3.75;0.70;;;23.80;37.40;;;;;;5037895;28;20037;-52
2022/09/22 12:37:29;;;;;;;2.35;0.57;;;23.80;37.30;;;;;;5047552;28;20033;-50
2022/09/22 12:40:22;;;;;;;1.33;0.52;;;23.80;37.20;;;;;;5039589;28;20040;-55
2022/09/22 12:42:51;;;;;;;1.77;0.50;;;23.80;37.10;;;;;;5048555;28;21830;-54
2022/09/22 12:45:41;;;;;;;1.13;0.57;;;23.80;37.50;;;;;;5041269;28;20437;-53
2022/09/22 12:48:22;;;;;;;1.30;0.50;;;23.80;36.80;;;;;;5034270;28;20056;-58
2022/09/22 12:50:49;;;;;;;1.52;0.82;;;23.90;36.80;;;;;;5043675;28;20508;-56
2022/09/22 12:53:21;;;;;;;3.10;0.70;;;23.90;37.40;;;;;;5039563;28;20052;-58
2022/09/22 12:55:52;;;;;;;1.17;0.52;;;24.00;37.80;;;;;;5035836;28;20033;-54
2022/09/22 12:58:18;;;;;;;2.15;0.50;;;23.90;37.80;;;;;;5055175;28;20128;-57
2022/09/22 13:00:44;;;;;;;0.68;0.50;;;24.00;37.70;;;;;;5050862;28;20071;-51
2022/09/22 13:03:37;;;;;;;1.52;0.57;;;24.10;37.50;;;;;;5051902;28;20029;-52
2022/09/22 13:06:22;;;;;;;1.40;0.50;;;24.10;37.20;;;;;;5030349;28;20069;-52
2022/09/22 13:08:54;;;;;;;0.80;0.35;;;24.10;37.00;;;;;;5038390;28;20087;-52
2022/09/22 13:11:58;;;;;;;0.80;0.40;;;24.10;36.80;;;;;;5055051;28;20040;-51
2022/09/22 13:14:59;;;;;;;2.30;0.40;;;24.10;36.50;;;;;;5051058;28;20026;-53
2022/09/22 13:17:40;;;;;;;0.93;0.40;;;24.20;36.40;;;;;;5038853;28;20045;-51
2022/09/22 13:20:31;;;;;;;1.40;0.60;;;24.20;36.30;;;;;;5036617;28;21824;-52
2022/09/22 13:23:11;;;;;;;1.27;0.50;;;24.20;36.20;;;;;;5034289;28;20342;-52